Aviation Digital Data Service (ADDS)

Output produced by METARs form (2052 UTC 23 January 2019)
found at http://www.aviationweather.gov/metar/data/
 
METAR text: YAYE 232000Z AUTO 00000KT 9999 // NCD 31/13 Q1006
Conditions at: YAYE (AYERS ROCK , AU) observed 2000 UTC 23 January 2019
Temperature: 31.0°C (88°F)
Dewpoint: 13.0°C (55°F) [RH = 33%]
Pressure (altimeter): 29.70 inches Hg (1006.0 mb)
Winds: calm
Visibility: 6 or more miles (10+ km)
Ceiling: at least 12,000 feet AGL
Clouds: sky clear below 12,000 feet AGL
Weather: no significant weather observed at this time

METAR text: YAYE 231900Z AUTO 07003KT 9999 // NCD 33/13 Q1006
Conditions at: YAYE (AYERS ROCK , AU) observed 1900 UTC 23 January 2019
Temperature: 33.0°C (91°F)
Dewpoint: 13.0°C (55°F) [RH = 30%]
Pressure (altimeter): 29.70 inches Hg (1006.0 mb)
Winds: from the ENE (70 degrees) at 3 MPH (3 knots; 1.5 m/s)
Visibility: 6 or more miles (10+ km)
Ceiling: at least 12,000 feet AGL
Clouds: sky clear below 12,000 feet AGL
Weather: no significant weather observed at this time

METAR text: YAYE 231800Z AUTO 12005KT 9999 // NCD 34/12 Q1006
Conditions at: YAYE (AYERS ROCK , AU) observed 1800 UTC 23 January 2019
Temperature: 34.0°C (93°F)
Dewpoint: 12.0°C (54°F) [RH = 26%]
Pressure (altimeter): 29.70 inches Hg (1006.0 mb)
Winds: from the ESE (120 degrees) at 6 MPH (5 knots; 2.6 m/s)
Visibility: 6 or more miles (10+ km)
Ceiling: at least 12,000 feet AGL
Clouds: sky clear below 12,000 feet AGL
Weather: no significant weather observed at this time

METAR text: YAYE 231700Z AUTO 18001KT 9999 // NCD 33/12 Q1006
Conditions at: YAYE (AYERS ROCK , AU) observed 1700 UTC 23 January 2019
Temperature: 33.0°C (91°F)
Dewpoint: 12.0°C (54°F) [RH = 28%]
Pressure (altimeter): 29.70 inches Hg (1006.0 mb)
Winds: from the S (180 degrees) at 1 MPH (1 knots; 0.5 m/s)
Visibility: 6 or more miles (10+ km)
Ceiling: at least 12,000 feet AGL
Clouds: sky clear below 12,000 feet AGL
Weather: no significant weather observed at this time

METAR text: YAYE 231600Z AUTO 30005KT 9999 // SCT100 36/11 Q1006
Conditions at: YAYE (AYERS ROCK , AU) observed 1600 UTC 23 January 2019
Temperature: 36.0°C (97°F)
Dewpoint: 11.0°C (52°F) [RH = 22%]
Pressure (altimeter): 29.70 inches Hg (1006.0 mb)
Winds: from the WNW (300 degrees) at 6 MPH (5 knots; 2.6 m/s)
Visibility: 6 or more miles (10+ km)
Ceiling: at least 12,000 feet AGL
Clouds: scattered clouds at 10000 feet AGL
Weather: no significant weather observed at this time

METAR text: YAYE 231500Z AUTO 31005KT 9999 // SCT120 36/10 Q1007
Conditions at: YAYE (AYERS ROCK , AU) observed 1500 UTC 23 January 2019
Temperature: 36.0°C (97°F)
Dewpoint: 10.0°C (50°F) [RH = 21%]
Pressure (altimeter): 29.73 inches Hg (1007.0 mb)
Winds: from the NW (310 degrees) at 6 MPH (5 knots; 2.6 m/s)
Visibility: 6 or more miles (10+ km)
Ceiling: at least 12,000 feet AGL
Clouds: scattered clouds at 12000 feet AGL
Weather: no significant weather observed at this time

METAR text: YAYE 231400Z AUTO 35007KT 9999 // NCD 37/09 Q1007
Conditions at: YAYE (AYERS ROCK , AU) observed 1400 UTC 23 January 2019
Temperature: 37.0°C (99°F)
Dewpoint: 9.0°C (48°F) [RH = 18%]
Pressure (altimeter): 29.73 inches Hg (1007.0 mb)
Winds: from the N (350 degrees) at 8 MPH (7 knots; 3.6 m/s)
Visibility: 6 or more miles (10+ km)
Ceiling: at least 12,000 feet AGL
Clouds: sky clear below 12,000 feet AGL
Weather: no significant weather observed at this time

METAR text: YAYE 231300Z AUTO 03005KT 9999 // NCD 37/08 Q1007
Conditions at: YAYE (AYERS ROCK , AU) observed 1300 UTC 23 January 2019
Temperature: 37.0°C (99°F)
Dewpoint: 8.0°C (46°F) [RH = 17%]
Pressure (altimeter): 29.73 inches Hg (1007.0 mb)
Winds: from the NNE (30 degrees) at 6 MPH (5 knots; 2.6 m/s)
Visibility: 6 or more miles (10+ km)
Ceiling: at least 12,000 feet AGL
Clouds: sky clear below 12,000 feet AGL
Weather: no significant weather observed at this time

METAR text: YAYE 231200Z AUTO 30004KT 9999 // NCD 37/09 Q1006
Conditions at: YAYE (AYERS ROCK , AU) observed 1200 UTC 23 January 2019
Temperature: 37.0°C (99°F)
Dewpoint: 9.0°C (48°F) [RH = 18%]
Pressure (altimeter): 29.70 inches Hg (1006.0 mb)
Winds: from the WNW (300 degrees) at 5 MPH (4 knots; 2.1 m/s)
Visibility: 6 or more miles (10+ km)
Ceiling: at least 12,000 feet AGL
Clouds: sky clear below 12,000 feet AGL
Weather: no significant weather observed at this time

METAR text: YAYE 231100Z AUTO 06004KT 9999 // NCD 39/08 Q1005
Conditions at: YAYE (AYERS ROCK , AU) observed 1100 UTC 23 January 2019
Temperature: 39.0°C (102°F)
Dewpoint: 8.0°C (46°F) [RH = 15%]
Pressure (altimeter): 29.68 inches Hg (1005.0 mb)
Winds: from the ENE (60 degrees) at 5 MPH (4 knots; 2.1 m/s)
Visibility: 6 or more miles (10+ km)
Ceiling: at least 12,000 feet AGL
Clouds: sky clear below 12,000 feet AGL
Weather: no significant weather observed at this time

METAR text: YAYE 231000Z AUTO 03007KT 9999 // NCD 40/06 Q1005
Conditions at: YAYE (AYERS ROCK , AU) observed 1000 UTC 23 January 2019
Temperature: 40.0°C (104°F)
Dewpoint: 6.0°C (43°F) [RH = 13%]
Pressure (altimeter): 29.68 inches Hg (1005.0 mb)
Winds: from the NNE (30 degrees) at 8 MPH (7 knots; 3.6 m/s)
Visibility: 6 or more miles (10+ km)
Ceiling: at least 12,000 feet AGL
Clouds: sky clear below 12,000 feet AGL
Weather: no significant weather observed at this time

METAR text: YAYE 230918Z AUTO 09018G28KT 9999 // NCD 41/05 Q1005
Conditions at: YAYE (AYERS ROCK , AU) observed 0918 UTC 23 January 2019
Temperature: 41.0°C (106°F)
Dewpoint: 5.0°C (41°F) [RH = 11%]
Pressure (altimeter): 29.68 inches Hg (1005.0 mb)
Winds: from the E (90 degrees) at 21 MPH (18 knots; 9.3 m/s)
gusting to 32 MPH (28 knots; 14.4 m/s)
Visibility: 6 or more miles (10+ km)
Ceiling: at least 12,000 feet AGL
Clouds: sky clear below 12,000 feet AGL
Weather: no significant weather observed at this time

METAR text: YAYE 230900Z AUTO 09020KT 9999 // NCD 41/07 Q1005
Conditions at: YAYE (AYERS ROCK , AU) observed 0900 UTC 23 January 2019
Temperature: 41.0°C (106°F)
Dewpoint: 7.0°C (45°F) [RH = 13%]
Pressure (altimeter): 29.68 inches Hg (1005.0 mb)
Winds: from the E (90 degrees) at 23 MPH (20 knots; 10.3 m/s)
Visibility: 6 or more miles (10+ km)
Ceiling: at least 12,000 feet AGL
Clouds: sky clear below 12,000 feet AGL
Weather: no significant weather observed at this time

METAR text: YAYE 230830Z AUTO 08017G29KT 9999 // NCD 40/10 Q1004
Conditions at: YAYE (AYERS ROCK , AU) observed 0830 UTC 23 January 2019
Temperature: 40.0°C (104°F)
Dewpoint: 10.0°C (50°F) [RH = 17%]
Pressure (altimeter): 29.65 inches Hg (1004.0 mb)
Winds: from the E (80 degrees) at 20 MPH (17 knots; 8.7 m/s)
gusting to 33 MPH (29 knots; 14.9 m/s)
Visibility: 6 or more miles (10+ km)
Ceiling: at least 12,000 feet AGL
Clouds: sky clear below 12,000 feet AGL
Weather: no significant weather observed at this time

METAR text: YAYE 230828Z AUTO 08015G29KT 9999 // NCD 41/09 Q1004
Conditions at: YAYE (AYERS ROCK , AU) observed 0828 UTC 23 January 2019
Temperature: 41.0°C (106°F)
Dewpoint: 9.0°C (48°F) [RH = 15%]
Pressure (altimeter): 29.65 inches Hg (1004.0 mb)
Winds: from the E (80 degrees) at 17 MPH (15 knots; 7.7 m/s)
gusting to 33 MPH (29 knots; 14.9 m/s)
Visibility: 6 or more miles (10+ km)
Ceiling: at least 12,000 feet AGL
Clouds: sky clear below 12,000 feet AGL
Weather: no significant weather observed at this time

METAR text: YAYE 230800Z AUTO 01006KT 9999 // NCD 43/06 Q1004
Conditions at: YAYE (AYERS ROCK , AU) observed 0800 UTC 23 January 2019
Temperature: 43.0°C (109°F)
Dewpoint: 6.0°C (43°F) [RH = 11%]
Pressure (altimeter): 29.65 inches Hg (1004.0 mb)
Winds: from the N (10 degrees) at 7 MPH (6 knots; 3.1 m/s)
Visibility: 6 or more miles (10+ km)
Ceiling: at least 12,000 feet AGL
Clouds: sky clear below 12,000 feet AGL
Weather: no significant weather observed at this time

METAR text: YAYE 230700Z AUTO 34008KT 9999 // NCD 43/06 Q1005
Conditions at: YAYE (AYERS ROCK , AU) observed 0700 UTC 23 January 2019
Temperature: 43.0°C (109°F)
Dewpoint: 6.0°C (43°F) [RH = 11%]
Pressure (altimeter): 29.68 inches Hg (1005.0 mb)
Winds: from the NNW (340 degrees) at 9 MPH (8 knots; 4.1 m/s)
Visibility: 6 or more miles (10+ km)
Ceiling: at least 12,000 feet AGL
Clouds: sky clear below 12,000 feet AGL
Weather: no significant weather observed at this time

METAR text: YAYE 230600Z AUTO 12011KT 040V150 9999 // NCD 42/07 Q1006
Conditions at: YAYE (AYERS ROCK , AU) observed 0600 UTC 23 January 2019
Temperature: 42.0°C (108°F)
Dewpoint: 7.0°C (45°F) [RH = 12%]
Pressure (altimeter): 29.70 inches Hg (1006.0 mb)
Winds: from the ESE (120 degrees) at 13 MPH (11 knots; 5.7 m/s)
Visibility: 6 or more miles (10+ km)
Ceiling: at least 12,000 feet AGL
Clouds: sky clear below 12,000 feet AGL
Weather: no significant weather observed at this time

METAR text: YAYE 230500Z AUTO 03013KT 9999 // SCT120 43/08 Q1006
Conditions at: YAYE (AYERS ROCK , AU) observed 0500 UTC 23 January 2019
Temperature: 43.0°C (109°F)
Dewpoint: 8.0°C (46°F) [RH = 12%]
Pressure (altimeter): 29.70 inches Hg (1006.0 mb)
Winds: from the NNE (30 degrees) at 15 MPH (13 knots; 6.7 m/s)
Visibility: 6 or more miles (10+ km)
Ceiling: at least 12,000 feet AGL
Clouds: scattered clouds at 12000 feet AGL
Weather: no significant weather observed at this time

METAR text: YAYE 230400Z AUTO 06011G25KT 9999 // NCD 41/09 Q1007
Conditions at: YAYE (AYERS ROCK , AU) observed 0400 UTC 23 January 2019
Temperature: 41.0°C (106°F)
Dewpoint: 9.0°C (48°F) [RH = 15%]
Pressure (altimeter): 29.73 inches Hg (1007.0 mb)
Winds: from the ENE (60 degrees) at 13 MPH (11 knots; 5.7 m/s)
gusting to 29 MPH (25 knots; 12.9 m/s)
Visibility: 6 or more miles (10+ km)
Ceiling: at least 12,000 feet AGL
Clouds: sky clear below 12,000 feet AGL
Weather: no significant weather observed at this time

METAR text: YAYE 230300Z AUTO 04013KT 9999 // NCD 41/07 Q1008
Conditions at: YAYE (AYERS ROCK , AU) observed 0300 UTC 23 January 2019
Temperature: 41.0°C (106°F)
Dewpoint: 7.0°C (45°F) [RH = 13%]
Pressure (altimeter): 29.76 inches Hg (1008.0 mb)
Winds: from the NE (40 degrees) at 15 MPH (13 knots; 6.7 m/s)
Visibility: 6 or more miles (10+ km)
Ceiling: at least 12,000 feet AGL
Clouds: sky clear below 12,000 feet AGL
Weather: no significant weather observed at this time

METAR text: YAYE 230200Z AUTO 05007KT 320V110 9999 // NCD 41/11 Q1009
Conditions at: YAYE (AYERS ROCK , AU) observed 0200 UTC 23 January 2019
Temperature: 41.0°C (106°F)
Dewpoint: 11.0°C (52°F) [RH = 17%]
Pressure (altimeter): 29.79 inches Hg (1009.0 mb)
Winds: from the NE (50 degrees) at 8 MPH (7 knots; 3.6 m/s)
Visibility: 6 or more miles (10+ km)
Ceiling: at least 12,000 feet AGL
Clouds: sky clear below 12,000 feet AGL
Weather: no significant weather observed at this time

METAR text: YAYE 230100Z AUTO 34005KT 9999 // NCD 38/13 Q1010
Conditions at: YAYE (AYERS ROCK , AU) observed 0100 UTC 23 January 2019
Temperature: 38.0°C (100°F)
Dewpoint: 13.0°C (55°F) [RH = 23%]
Pressure (altimeter): 29.82 inches Hg (1010.0 mb)
Winds: from the NNW (340 degrees) at 6 MPH (5 knots; 2.6 m/s)
Visibility: 6 or more miles (10+ km)
Ceiling: at least 12,000 feet AGL
Clouds: sky clear below 12,000 feet AGL
Weather: no significant weather observed at this time

METAR text: YAYE 230000Z AUTO 29006KT 9999 // NCD 36/13 Q1010
Conditions at: YAYE (AYERS ROCK , AU) observed 0000 UTC 23 January 2019
Temperature: 36.0°C (97°F)
Dewpoint: 13.0°C (55°F) [RH = 25%]
Pressure (altimeter): 29.82 inches Hg (1010.0 mb)
Winds: from the WNW (290 degrees) at 7 MPH (6 knots; 3.1 m/s)
Visibility: 6 or more miles (10+ km)
Ceiling: at least 12,000 feet AGL
Clouds: sky clear below 12,000 feet AGL
Weather: no significant weather observed at this time

METAR text: YAYE 222300Z AUTO 31009KT 9999 // NCD 34/13 Q1010
Conditions at: YAYE (AYERS ROCK , AU) observed 2300 UTC 22 January 2019
Temperature: 34.0°C (93°F)
Dewpoint: 13.0°C (55°F) [RH = 28%]
Pressure (altimeter): 29.82 inches Hg (1010.0 mb)
Winds: from the NW (310 degrees) at 10 MPH (9 knots; 4.6 m/s)
Visibility: 6 or more miles (10+ km)
Ceiling: at least 12,000 feet AGL
Clouds: sky clear below 12,000 feet AGL
Weather: no significant weather observed at this time

METAR text: YAYE 222233Z AUTO 31007KT 6000 // NCD 33/13 Q1010
Conditions at: YAYE (AYERS ROCK , AU) observed 2233 UTC 22 January 2019
Temperature: 33.0°C (91°F)
Dewpoint: 13.0°C (55°F) [RH = 30%]
Pressure (altimeter): 29.82 inches Hg (1010.0 mb)
Winds: from the NW (310 degrees) at 8 MPH (7 knots; 3.6 m/s)
Visibility: 4 miles ( 6 km)
Ceiling: at least 12,000 feet AGL
Clouds: sky clear below 12,000 feet AGL
Weather: no significant weather observed at this time

METAR text: YAYE 222200Z AUTO 30002KT 9999 // NCD 31/14 Q1010
Conditions at: YAYE (AYERS ROCK , AU) observed 2200 UTC 22 January 2019
Temperature: 31.0°C (88°F)
Dewpoint: 14.0°C (57°F) [RH = 36%]
Pressure (altimeter): 29.82 inches Hg (1010.0 mb)
Winds: from the WNW (300 degrees) at 2 MPH (2 knots; 1.0 m/s)
Visibility: 6 or more miles (10+ km)
Ceiling: at least 12,000 feet AGL
Clouds: sky clear below 12,000 feet AGL
Weather: no significant weather observed at this time

METAR text: YAYE 222100Z AUTO 25003KT 9999 // NCD 27/13 Q1009
Conditions at: YAYE (AYERS ROCK , AU) observed 2100 UTC 22 January 2019
Temperature: 27.0°C (81°F)
Dewpoint: 13.0°C (55°F) [RH = 42%]
Pressure (altimeter): 29.79 inches Hg (1009.0 mb)
Winds: from the WSW (250 degrees) at 3 MPH (3 knots; 1.5 m/s)
Visibility: 6 or more miles (10+ km)
Ceiling: at least 12,000 feet AGL
Clouds: sky clear below 12,000 feet AGL
Weather: no significant weather observed at this time

METAR text: YAYE 222000Z AUTO 27007KT 9999 // NCD 27/13 Q1009
Conditions at: YAYE (AYERS ROCK , AU) observed 2000 UTC 22 January 2019
Temperature: 27.0°C (81°F)
Dewpoint: 13.0°C (55°F) [RH = 42%]
Pressure (altimeter): 29.79 inches Hg (1009.0 mb)
Winds: from the W (270 degrees) at 8 MPH (7 knots; 3.6 m/s)
Visibility: 6 or more miles (10+ km)
Ceiling: at least 12,000 feet AGL
Clouds: sky clear below 12,000 feet AGL
Weather: no significant weather observed at this time

METAR text: YAYE 221900Z AUTO 31007KT 9999 // NCD 28/12 Q1009
Conditions at: YAYE (AYERS ROCK , AU) observed 1900 UTC 22 January 2019
Temperature: 28.0°C (82°F)
Dewpoint: 12.0°C (54°F) [RH = 37%]
Pressure (altimeter): 29.79 inches Hg (1009.0 mb)
Winds: from the NW (310 degrees) at 8 MPH (7 knots; 3.6 m/s)
Visibility: 6 or more miles (10+ km)
Ceiling: at least 12,000 feet AGL
Clouds: sky clear below 12,000 feet AGL
Weather: no significant weather observed at this time

METAR text: YAYE 221800Z AUTO 21003KT 9999 // NCD 29/12 Q1008
Conditions at: YAYE (AYERS ROCK , AU) observed 1800 UTC 22 January 2019
Temperature: 29.0°C (84°F)
Dewpoint: 12.0°C (54°F) [RH = 35%]
Pressure (altimeter): 29.76 inches Hg (1008.0 mb)
Winds: from the SSW (210 degrees) at 3 MPH (3 knots; 1.5 m/s)
Visibility: 6 or more miles (10+ km)
Ceiling: at least 12,000 feet AGL
Clouds: sky clear below 12,000 feet AGL
Weather: no significant weather observed at this time

METAR text: YAYE 221700Z AUTO 21004KT 9999 // NCD 31/12 Q1007
Conditions at: YAYE (AYERS ROCK , AU) observed 1700 UTC 22 January 2019
Temperature: 31.0°C (88°F)
Dewpoint: 12.0°C (54°F) [RH = 31%]
Pressure (altimeter): 29.73 inches Hg (1007.0 mb)
Winds: from the SSW (210 degrees) at 5 MPH (4 knots; 2.1 m/s)
Visibility: 6 or more miles (10+ km)
Ceiling: at least 12,000 feet AGL
Clouds: sky clear below 12,000 feet AGL
Weather: no significant weather observed at this time

METAR text: YAYE 221600Z AUTO 21005KT 9999 // NCD 32/11 Q1008
Conditions at: YAYE (AYERS ROCK , AU) observed 1600 UTC 22 January 2019
Temperature: 32.0°C (90°F)
Dewpoint: 11.0°C (52°F) [RH = 28%]
Pressure (altimeter): 29.76 inches Hg (1008.0 mb)
Winds: from the SSW (210 degrees) at 6 MPH (5 knots; 2.6 m/s)
Visibility: 6 or more miles (10+ km)
Ceiling: at least 12,000 feet AGL
Clouds: sky clear below 12,000 feet AGL
Weather: no significant weather observed at this time

METAR text: YAYE 221500Z AUTO 24001KT 9999 // NCD 33/11 Q1008
Conditions at: YAYE (AYERS ROCK , AU) observed 1500 UTC 22 January 2019
Temperature: 33.0°C (91°F)
Dewpoint: 11.0°C (52°F) [RH = 26%]
Pressure (altimeter): 29.76 inches Hg (1008.0 mb)
Winds: from the WSW (240 degrees) at 1 MPH (1 knots; 0.5 m/s)
Visibility: 6 or more miles (10+ km)
Ceiling: at least 12,000 feet AGL
Clouds: sky clear below 12,000 feet AGL
Weather: no significant weather observed at this time

METAR text: YAYE 221400Z AUTO 29008KT 9999 // NCD 34/11 Q1008
Conditions at: YAYE (AYERS ROCK , AU) observed 1400 UTC 22 January 2019
Temperature: 34.0°C (93°F)
Dewpoint: 11.0°C (52°F) [RH = 25%]
Pressure (altimeter): 29.76 inches Hg (1008.0 mb)
Winds: from the WNW (290 degrees) at 9 MPH (8 knots; 4.1 m/s)
Visibility: 6 or more miles (10+ km)
Ceiling: at least 12,000 feet AGL
Clouds: sky clear below 12,000 feet AGL
Weather: no significant weather observed at this time

METAR text: YAYE 221300Z AUTO 06004KT 9999 // SCT105 35/12 Q1010
Conditions at: YAYE (AYERS ROCK , AU) observed 1300 UTC 22 January 2019
Temperature: 35.0°C (95°F)
Dewpoint: 12.0°C (54°F) [RH = 25%]
Pressure (altimeter): 29.82 inches Hg (1010.0 mb)
Winds: from the ENE (60 degrees) at 5 MPH (4 knots; 2.1 m/s)
Visibility: 6 or more miles (10+ km)
Ceiling: at least 12,000 feet AGL
Clouds: scattered clouds at 10500 feet AGL
Weather: no significant weather observed at this time

METAR text: YAYE 221200Z AUTO 33016KT 9999 // NCD 36/11 Q1008
Conditions at: YAYE (AYERS ROCK , AU) observed 1200 UTC 22 January 2019
Temperature: 36.0°C (97°F)
Dewpoint: 11.0°C (52°F) [RH = 22%]
Pressure (altimeter): 29.76 inches Hg (1008.0 mb)
Winds: from the NNW (330 degrees) at 18 MPH (16 knots; 8.2 m/s)
Visibility: 6 or more miles (10+ km)
Ceiling: at least 12,000 feet AGL
Clouds: sky clear below 12,000 feet AGL
Weather: no significant weather observed at this time

METAR text: YAYE 221100Z AUTO 27007KT 9999 // NCD 38/08 Q1006
Conditions at: YAYE (AYERS ROCK , AU) observed 1100 UTC 22 January 2019
Temperature: 38.0°C (100°F)
Dewpoint: 8.0°C (46°F) [RH = 16%]
Pressure (altimeter): 29.70 inches Hg (1006.0 mb)
Winds: from the W (270 degrees) at 8 MPH (7 knots; 3.6 m/s)
Visibility: 6 or more miles (10+ km)
Ceiling: at least 12,000 feet AGL
Clouds: sky clear below 12,000 feet AGL
Weather: no significant weather observed at this time

METAR text: YAYE 221000Z AUTO 32008KT 9999 // NCD 40/10 Q1006
Conditions at: YAYE (AYERS ROCK , AU) observed 1000 UTC 22 January 2019
Temperature: 40.0°C (104°F)
Dewpoint: 10.0°C (50°F) [RH = 17%]
Pressure (altimeter): 29.70 inches Hg (1006.0 mb)
Winds: from the NW (320 degrees) at 9 MPH (8 knots; 4.1 m/s)
Visibility: 6 or more miles (10+ km)
Ceiling: at least 12,000 feet AGL
Clouds: sky clear below 12,000 feet AGL
Weather: no significant weather observed at this time

METAR text: YAYE 220900Z AUTO 03015KT 9999 // NCD 41/05 Q1005
Conditions at: YAYE (AYERS ROCK , AU) observed 0900 UTC 22 January 2019
Temperature: 41.0°C (106°F)
Dewpoint: 5.0°C (41°F) [RH = 11%]
Pressure (altimeter): 29.68 inches Hg (1005.0 mb)
Winds: from the NNE (30 degrees) at 17 MPH (15 knots; 7.7 m/s)
Visibility: 6 or more miles (10+ km)
Ceiling: at least 12,000 feet AGL
Clouds: sky clear below 12,000 feet AGL
Weather: no significant weather observed at this time